Yellowknife Airport
CYZF : rendu visible

Aérodrome :











RETROUVEZ-NOUS SUR...

 
LOGIN :

S'inscrire | Disclaimer

   EN    FR    IT 

 









Légende :    VFR   VFR Marginal   IFR   IFR Intensif   IFR Très Intensif
Visi : 
Plafond : 
>= 8 km
>= 3000ft
5 à 8 km
1000 à 3000 ft
1500m à 5 km
500 à 1000 ft
800 à 1500m
200 à 500 ft
< 800m
< 200 ft
Symboles :   Orages  Brouillard  Fortes neiges  Fortes précipitations  Vent > 20 kt






- Altitude de l'aérodrome : 675 ft
- Code IATA : YZF


CYZF - Yellowknife

DERNIER METAR :
  • 100700Z 04006KT 15SM SKC M33/M37 A3035 RMK SLP318

METARs EXPIRÉS :
  • 100600Z 03005KT 15SM SKC M33/M37 A3034 RMK SLP314
  • 100500Z 04007KT 15SM SKC M32/M36 A3031 RMK SLP305

TAF TAF CYZF
Valide du 10 à 06h jusqu'au 11 à 06h UTC


100538Z 1006/1106 03005KT P6SM FEW240
BECMG 1006/1008 07007KT RMK NXT FCST BY 101200Z



MET'MAP, la Météo Aéronautique d'un coup d'oeil ! - Copyright ORBIFLY Décembre 2007 - Disclaimer

ORBIFLY MET'MAP TEAM :

Programmation & Développement : Alexandra Zaïnal
Sur une idée originale de : Baudouin d'Aumeries
Assistance à la programmation : Marc-Olivier Méhu
Soutien technique & logistique : Manuel Goepfert

Contact : metmap@orbifly.com




SOURCES & CREDITS :

   NOAA       Earth
Advisory